createdAt,value
2023-03-14T00:00:18.665Z,51.39
2023-03-14T00:02:45.267Z,51.22
2023-03-14T00:05:12.097Z,51.28
2023-03-14T00:07:40.238Z,50.96
2023-03-14T00:10:14.193Z,50.96
2023-03-14T00:12:42.256Z,51.08
2023-03-14T00:15:09.869Z,51.07
2023-03-14T00:17:37.459Z,51.02
2023-03-14T00:20:09.177Z,51.21
2023-03-14T00:22:36.886Z,51.13
2023-03-14T00:25:05.078Z,51.05
2023-03-14T00:27:32.019Z,50.75
2023-03-14T00:29:58.654Z,51.18
2023-03-14T00:32:25.456Z,50.82
2023-03-14T00:34:52.083Z,51.17
2023-03-14T00:37:18.785Z,50.93
2023-03-14T00:39:45.349Z,51.11
2023-03-14T00:42:12.014Z,51.04
2023-03-14T00:44:38.668Z,51.00
2023-03-14T00:47:05.400Z,50.89
2023-03-14T00:49:32.162Z,50.67
2023-03-14T00:51:58.727Z,50.89
2023-03-14T00:54:25.277Z,50.71
2023-03-14T00:56:51.829Z,50.88
2023-03-14T00:59:18.600Z,50.65
2023-03-14T01:01:45.242Z,50.67
2023-03-14T01:04:11.853Z,50.68
2023-03-14T01:06:38.712Z,50.58
2023-03-14T01:09:05.483Z,50.54
2023-03-14T01:11:34.528Z,50.50
2023-03-14T01:14:02.059Z,50.79
2023-03-14T01:16:32.162Z,50.30
2023-03-14T01:18:58.777Z,50.42
2023-03-14T01:21:33.688Z,50.34
2023-03-14T01:24:01.649Z,50.52
2023-03-14T01:26:32.438Z,50.54
2023-03-14T01:28:59.109Z,50.74
2023-03-14T01:31:26.820Z,50.85
2023-03-14T01:33:54.057Z,50.93
2023-03-14T01:36:20.894Z,51.39
2023-03-14T01:38:47.774Z,51.21
2023-03-14T01:41:17.494Z,51.36
2023-03-14T01:43:44.091Z,51.40
2023-03-14T01:46:18.862Z,51.38
2023-03-14T01:48:51.614Z,51.46
2023-03-14T01:51:33.106Z,51.62
2023-03-14T01:54:08.975Z,51.47
2023-03-14T01:56:36.190Z,51.46
2023-03-14T01:59:07.586Z,51.72
2023-03-14T02:01:35.419Z,52.13
2023-03-14T02:04:03.922Z,51.85
2023-03-14T02:06:38.982Z,51.92
2023-03-14T02:09:05.493Z,51.71
2023-03-14T02:11:32.328Z,51.99
2023-03-14T02:14:00.524Z,52.02
2023-03-14T02:16:27.129Z,51.93
2023-03-14T02:18:54.031Z,51.95
2023-03-14T02:21:35.753Z,51.94
2023-03-14T02:24:05.171Z,51.85
2023-03-14T02:27:03.835Z,52.03
2023-03-14T02:29:33.687Z,51.89
2023-03-14T02:32:00.410Z,51.95
2023-03-14T02:34:27.387Z,52.03
2023-03-14T02:36:54.117Z,52.07
2023-03-14T02:39:31.728Z,51.96
2023-03-14T02:41:58.291Z,52.06
2023-03-14T02:44:24.901Z,52.26
2023-03-14T02:46:52.557Z,52.03
2023-03-14T02:49:19.215Z,52.02
2023-03-14T02:51:47.149Z,52.19
2023-03-14T02:54:15.469Z,52.08
2023-03-14T02:56:42.014Z,52.47
2023-03-14T02:59:08.560Z,52.14
2023-03-14T03:01:35.507Z,52.13
2023-03-14T03:04:02.288Z,52.17
2023-03-14T03:06:28.833Z,52.21
2023-03-14T03:08:55.495Z,51.97
2023-03-14T03:11:22.087Z,52.41
2023-03-14T03:13:48.687Z,52.27
2023-03-14T03:16:16.124Z,52.35
2023-03-14T03:18:43.034Z,52.38
2023-03-14T03:21:10.542Z,52.46
2023-03-14T03:23:37.282Z,52.18
2023-03-14T03:26:04.095Z,52.49
2023-03-14T03:28:30.626Z,52.42
2023-03-14T03:30:57.180Z,52.23
2023-03-14T03:33:25.363Z,52.25
2023-03-14T03:35:53.291Z,52.22
2023-03-14T03:38:21.260Z,52.04
2023-03-14T03:40:47.834Z,52.19
2023-03-14T03:43:14.465Z,52.27
2023-03-14T03:45:41.238Z,52.24
2023-03-14T03:48:07.915Z,52.08
2023-03-14T03:50:34.562Z,52.23
2023-03-14T03:53:01.506Z,52.18
2023-03-14T03:55:29.164Z,52.32
2023-03-14T03:57:55.899Z,52.27
2023-03-14T04:00:22.745Z,52.20
2023-03-14T04:02:49.379Z,52.20
2023-03-14T04:05:16.106Z,52.40
2023-03-14T04:07:42.678Z,52.19
2023-03-14T04:10:09.711Z,52.20
2023-03-14T04:12:36.321Z,52.24
2023-03-14T04:15:02.988Z,52.38
2023-03-14T04:17:29.585Z,51.98
2023-03-14T04:19:56.159Z,52.12
2023-03-14T04:22:22.720Z,52.45
2023-03-14T04:24:49.341Z,52.14
2023-03-14T04:27:16.019Z,52.29
2023-03-14T04:29:45.924Z,52.17
2023-03-14T04:32:12.441Z,52.11
2023-03-14T04:34:39.036Z,52.27
2023-03-14T04:37:05.576Z,52.37
2023-03-14T04:39:32.101Z,52.23
2023-03-14T04:41:58.705Z,52.24
2023-03-14T04:44:25.389Z,52.20
2023-03-14T04:46:51.992Z,52.27
2023-03-14T04:49:18.657Z,52.44
2023-03-14T04:51:45.218Z,52.48
2023-03-14T04:54:11.985Z,52.55
2023-03-14T04:56:38.640Z,52.60
2023-03-14T04:59:05.658Z,52.68
2023-03-14T05:01:32.405Z,52.78
2023-03-14T05:03:58.980Z,52.87
2023-03-14T05:06:25.528Z,52.84
2023-03-14T05:08:52.240Z,52.92
2023-03-14T05:11:19.232Z,52.97
2023-03-14T05:13:45.811Z,53.03
2023-03-14T05:16:12.705Z,53.10
2023-03-14T05:18:39.317Z,52.94
2023-03-14T05:21:06.148Z,53.08
2023-03-14T05:23:32.725Z,53.03
2023-03-14T05:25:59.353Z,53.26
2023-03-14T05:28:26.009Z,53.07
2023-03-14T05:30:52.595Z,53.05
2023-03-14T05:33:19.094Z,53.16
2023-03-14T05:35:45.712Z,53.22
2023-03-14T05:38:12.300Z,53.17
2023-03-14T05:40:38.882Z,53.22
2023-03-14T05:43:05.617Z,53.28
2023-03-14T05:45:34.398Z,53.37
2023-03-14T05:48:01.173Z,53.36
2023-03-14T05:50:27.849Z,53.47
2023-03-14T05:52:54.422Z,53.43
2023-03-14T05:55:21.019Z,53.49
2023-03-14T05:57:47.680Z,53.38
2023-03-14T06:00:14.594Z,53.58
2023-03-14T06:02:41.180Z,53.45
2023-03-14T06:05:08.733Z,53.52
2023-03-14T06:07:35.308Z,53.64
2023-03-14T06:10:02.195Z,53.75
2023-03-14T06:12:29.352Z,53.84
2023-03-14T06:14:55.917Z,53.59
2023-03-14T06:17:22.703Z,53.80
2023-03-14T06:19:49.227Z,53.87
2023-03-14T06:22:15.847Z,53.51
2023-03-14T06:24:42.397Z,53.42
2023-03-14T06:27:08.997Z,53.33
2023-03-14T06:29:35.549Z,53.13
2023-03-14T06:32:02.154Z,53.04
2023-03-14T06:34:28.818Z,53.06
2023-03-14T06:36:55.342Z,53.08
2023-03-14T06:39:21.895Z,53.11
2023-03-14T06:41:48.461Z,52.93
2023-03-14T06:44:15.018Z,52.98
2023-03-14T06:46:41.570Z,52.86
2023-03-14T06:49:08.192Z,52.67
2023-03-14T06:51:35.105Z,52.67
2023-03-14T06:54:01.673Z,52.70
2023-03-14T06:56:28.234Z,52.48
2023-03-14T06:58:54.806Z,52.72
2023-03-14T07:01:26.122Z,52.52
2023-03-14T07:03:52.834Z,52.61
2023-03-14T07:06:19.390Z,52.33
2023-03-14T07:08:46.390Z,52.33
2023-03-14T07:11:13.269Z,52.35
2023-03-14T07:13:40.638Z,52.43
2023-03-14T07:16:08.060Z,52.67
2023-03-14T07:18:34.684Z,52.56
2023-03-14T07:21:01.274Z,52.74
2023-03-14T07:23:27.871Z,52.84
2023-03-14T07:25:54.890Z,52.84
2023-03-14T07:28:21.596Z,52.90
2023-03-14T07:30:48.843Z,53.01
2023-03-14T07:33:15.954Z,53.01
2023-03-14T07:35:42.642Z,53.09
2023-03-14T07:38:09.357Z,53.17
2023-03-14T07:40:35.949Z,53.18
2023-03-14T07:43:02.473Z,53.21
2023-03-14T07:45:29.065Z,53.17
2023-03-14T07:47:58.532Z,53.51
2023-03-14T07:50:26.707Z,53.33
2023-03-14T07:52:54.583Z,53.46
2023-03-14T07:55:21.495Z,53.36
2023-03-14T07:57:48.793Z,53.27
2023-03-14T08:00:16.024Z,53.46
2023-03-14T08:02:42.972Z,53.48
2023-03-14T08:05:10.389Z,53.46
2023-03-14T08:07:37.045Z,53.49
2023-03-14T08:10:04.043Z,53.39
2023-03-14T08:12:30.585Z,53.54
2023-03-14T08:14:57.111Z,53.74
2023-03-14T08:17:23.633Z,53.52
2023-03-14T08:19:50.157Z,53.92
2023-03-14T08:22:19.779Z,53.67
2023-03-14T08:24:46.555Z,53.50
2023-03-14T08:27:13.140Z,53.48
2023-03-14T08:29:41.506Z,53.50
2023-03-14T08:32:08.170Z,53.49
2023-03-14T08:34:35.069Z,53.51
2023-03-14T08:37:02.792Z,53.56
2023-03-14T08:39:30.976Z,53.51
2023-03-14T08:41:57.588Z,53.52
2023-03-14T08:44:24.132Z,53.35
2023-03-14T08:46:50.808Z,53.56
2023-03-14T08:49:17.398Z,53.68
2023-03-14T08:51:44.026Z,53.57
2023-03-14T08:54:12.075Z,53.63
2023-03-14T08:56:41.735Z,53.51
2023-03-14T08:59:09.207Z,53.45
2023-03-14T09:01:35.855Z,53.64
2023-03-14T09:04:02.454Z,53.49
2023-03-14T09:06:28.976Z,53.63
2023-03-14T09:08:55.530Z,53.53
2023-03-14T09:11:22.102Z,53.65
2023-03-14T09:13:49.654Z,53.61
2023-03-14T09:16:16.852Z,53.27
2023-03-14T09:18:43.410Z,53.62
2023-03-14T09:21:09.951Z,53.55
2023-03-14T09:23:36.540Z,53.30
2023-03-14T09:26:03.231Z,53.41
2023-03-14T09:28:29.872Z,53.34
2023-03-14T09:30:56.525Z,53.09
2023-03-14T09:33:23.342Z,53.29
2023-03-14T09:35:50.020Z,53.35
2023-03-14T09:38:17.500Z,53.25
2023-03-14T09:40:44.268Z,52.93
2023-03-14T09:43:14.644Z,53.14
2023-03-14T09:45:44.039Z,53.32
2023-03-14T09:48:17.479Z,53.06
2023-03-14T09:50:49.782Z,53.10
2023-03-14T09:53:25.254Z,53.27
2023-03-14T09:55:53.292Z,53.21
2023-03-14T09:58:25.504Z,53.16
2023-03-14T10:00:56.355Z,53.21
2023-03-14T10:03:35.641Z,53.32
2023-03-14T10:06:02.869Z,53.08
2023-03-14T10:08:29.409Z,53.24
2023-03-14T10:10:56.092Z,53.16
2023-03-14T10:13:28.892Z,53.32
2023-03-14T10:16:00.145Z,53.17
2023-03-14T10:18:29.247Z,53.31
2023-03-14T10:21:09.939Z,53.20
2023-03-14T10:23:38.479Z,53.19
2023-03-14T10:26:19.760Z,53.11
2023-03-14T10:28:49.171Z,53.21
2023-03-14T10:31:16.330Z,53.12
2023-03-14T10:33:43.130Z,53.12
2023-03-14T10:36:16.884Z,53.06
2023-03-14T10:38:43.601Z,53.13
2023-03-14T10:41:28.174Z,53.09
2023-03-14T10:43:59.518Z,53.00
2023-03-14T10:46:27.872Z,52.92
2023-03-14T10:48:54.540Z,52.94
2023-03-14T10:51:25.946Z,52.81
2023-03-14T10:54:20.268Z,52.62
2023-03-14T10:56:57.812Z,52.89
2023-03-14T10:59:24.666Z,52.82
2023-03-14T11:02:24.114Z,53.07
2023-03-14T11:05:05.681Z,53.06
2023-03-14T11:07:53.886Z,53.32
2023-03-14T11:10:41.156Z,53.36
2023-03-14T11:13:36.125Z,53.20
2023-03-14T11:16:24.065Z,53.43
2023-03-14T11:19:12.494Z,53.69
2023-03-14T11:21:56.099Z,53.64
2023-03-14T11:24:50.753Z,53.44
2023-03-14T11:27:31.457Z,53.52
2023-03-14T11:30:19.090Z,53.74
2023-03-14T11:32:47.047Z,53.76
2023-03-14T11:35:32.541Z,53.74
2023-03-14T11:38:06.514Z,53.80
2023-03-14T11:40:35.187Z,53.75
2023-03-14T11:43:07.356Z,53.74
2023-03-14T11:45:38.313Z,53.68
2023-03-14T11:48:07.816Z,53.67
2023-03-14T11:50:37.414Z,53.71
2023-03-14T11:53:12.805Z,53.57
2023-03-14T11:55:42.901Z,53.68
2023-03-14T11:58:24.396Z,53.61
2023-03-14T12:00:54.517Z,53.60
2023-03-14T12:03:40.544Z,53.37
2023-03-14T12:06:14.710Z,53.12
2023-03-14T12:08:54.058Z,53.43
2023-03-14T12:11:24.772Z,53.09
2023-03-14T12:13:53.634Z,53.18
2023-03-14T12:16:41.079Z,53.11
2023-03-14T12:19:25.479Z,53.12
2023-03-14T12:21:56.162Z,53.53
2023-03-14T12:24:36.385Z,53.49
2023-03-14T12:27:05.101Z,53.42
2023-03-14T12:29:32.117Z,53.74
2023-03-14T12:32:01.649Z,53.23
2023-03-14T12:34:44.393Z,53.02
2023-03-14T12:37:38.240Z,53.26
2023-03-14T12:40:16.651Z,52.96
2023-03-14T12:42:58.286Z,53.04
2023-03-14T12:45:36.265Z,53.23
2023-03-14T12:48:33.161Z,53.44
2023-03-14T12:51:16.530Z,52.86
2023-03-14T12:54:01.059Z,53.58
2023-03-14T12:57:08.263Z,53.60
2023-03-14T12:59:36.404Z,53.32
2023-03-14T13:02:09.555Z,53.59
2023-03-14T13:04:47.047Z,53.28
2023-03-14T13:07:32.968Z,53.47
2023-03-14T13:12:49.352Z,53.13
2023-03-14T13:15:27.352Z,53.58
2023-03-14T13:17:59.915Z,53.50
2023-03-14T13:20:33.401Z,53.62
2023-03-14T13:22:59.987Z,53.45
2023-03-14T13:25:31.396Z,53.75
2023-03-14T13:27:58.458Z,53.77
2023-03-14T13:30:36.954Z,53.31
2023-03-14T13:33:05.827Z,53.26
2023-03-14T13:35:44.796Z,53.40
2023-03-14T13:38:18.566Z,53.20
2023-03-14T13:40:47.105Z,52.91
2023-03-14T13:43:25.993Z,53.04
2023-03-14T13:46:01.890Z,53.04
2023-03-14T13:48:30.983Z,53.32
2023-03-14T13:51:03.344Z,52.86
2023-03-14T13:53:29.954Z,53.48
2023-03-14T13:55:56.595Z,53.09
2023-03-14T13:58:29.005Z,53.12
2023-03-14T14:01:11.211Z,53.03
2023-03-14T14:03:42.492Z,53.21
2023-03-14T14:06:24.600Z,53.04
2023-03-14T14:08:51.688Z,53.54
2023-03-14T14:11:35.469Z,52.80
2023-03-14T14:14:17.909Z,52.85
2023-03-14T14:16:46.465Z,53.18
2023-03-14T14:19:14.910Z,52.89
2023-03-14T14:21:41.799Z,53.09
2023-03-14T14:24:13.568Z,52.93
2023-03-14T14:27:27.361Z,52.86
2023-03-14T14:30:20.189Z,53.04
2023-03-14T14:32:49.516Z,52.80
2023-03-14T14:35:36.445Z,52.38
2023-03-14T14:38:13.992Z,52.48
2023-03-14T14:40:52.281Z,52.73
2023-03-14T14:43:25.708Z,52.49
2023-03-14T14:45:54.340Z,52.64
2023-03-14T14:48:24.268Z,52.52
2023-03-14T14:51:01.679Z,52.69
2023-03-14T14:53:30.014Z,52.77
2023-03-14T14:56:04.357Z,53.16
2023-03-14T14:58:38.977Z,53.27
2023-03-14T15:01:12.823Z,53.25
2023-03-14T15:03:39.682Z,52.91
2023-03-14T15:06:06.480Z,52.85
2023-03-14T15:08:33.082Z,52.78
2023-03-14T15:11:00.011Z,53.05
2023-03-14T15:13:26.769Z,53.34
2023-03-14T15:15:57.019Z,53.05
2023-03-14T15:18:27.093Z,53.36
2023-03-14T15:20:55.118Z,53.29
2023-03-14T15:23:22.834Z,53.25
2023-03-14T15:25:57.247Z,52.89
2023-03-14T15:28:26.098Z,52.85
2023-03-14T15:30:59.994Z,53.45
2023-03-14T15:33:27.575Z,52.75
2023-03-14T15:35:54.310Z,52.63
2023-03-14T15:38:23.750Z,52.59
2023-03-14T15:40:51.737Z,52.76
2023-03-14T15:43:19.377Z,53.19
2023-03-14T15:45:46.628Z,53.25
2023-03-14T15:48:18.732Z,53.55
2023-03-14T15:50:45.392Z,53.09
2023-03-14T15:53:12.480Z,53.25
2023-03-14T15:55:39.114Z,53.47
2023-03-14T15:58:05.833Z,53.33
2023-03-14T16:00:33.164Z,53.37
2023-03-14T16:02:59.730Z,53.44
2023-03-14T16:05:26.341Z,53.19
2023-03-14T16:07:52.877Z,53.22
2023-03-14T16:10:19.504Z,53.56
2023-03-14T16:12:46.136Z,52.86
2023-03-14T16:15:12.702Z,53.15
2023-03-14T16:17:41.056Z,53.42
2023-03-14T16:20:08.761Z,53.46
2023-03-14T16:22:35.855Z,53.57
2023-03-14T16:25:07.697Z,52.88
2023-03-14T16:27:34.278Z,53.13
2023-03-14T16:30:00.872Z,53.46
2023-03-14T16:32:28.243Z,53.21
2023-03-14T16:34:54.899Z,53.13
2023-03-14T16:37:24.038Z,53.10
2023-03-14T16:42:43.708Z,53.36
2023-03-14T16:45:17.239Z,53.45
2023-03-14T16:47:43.757Z,53.54
2023-03-14T16:50:10.545Z,53.50
2023-03-14T16:52:37.337Z,53.33
2023-03-14T16:55:04.719Z,53.26
2023-03-14T16:57:31.777Z,52.87
2023-03-14T16:59:58.329Z,52.89
2023-03-14T17:02:25.169Z,52.43
2023-03-14T17:04:51.959Z,52.71
2023-03-14T17:07:18.504Z,52.38
2023-03-14T17:09:45.097Z,52.88
2023-03-14T17:12:11.799Z,52.68
2023-03-14T17:14:39.784Z,52.50
2023-03-14T17:17:06.391Z,52.87
2023-03-14T17:19:34.528Z,52.37
2023-03-14T17:22:21.228Z,52.64
2023-03-14T17:24:47.721Z,53.14
2023-03-14T17:27:18.560Z,53.23
2023-03-14T17:29:45.137Z,53.31
2023-03-14T17:32:11.662Z,53.15
2023-03-14T17:34:38.198Z,52.61
2023-03-14T17:37:04.833Z,52.86
2023-03-14T17:39:31.418Z,52.99
2023-03-14T17:41:57.969Z,52.86
2023-03-14T17:44:24.517Z,52.96
2023-03-14T17:46:51.157Z,53.23
2023-03-14T17:49:17.745Z,52.45
2023-03-14T17:51:44.424Z,52.78
2023-03-14T17:54:10.942Z,53.01
2023-03-14T17:56:37.511Z,52.92
2023-03-14T17:59:04.070Z,53.06
2023-03-14T18:01:31.422Z,52.66
2023-03-14T18:03:58.862Z,52.47
2023-03-14T18:06:27.194Z,52.41
2023-03-14T18:08:55.109Z,52.77
2023-03-14T18:11:21.811Z,53.35
2023-03-14T18:13:48.382Z,52.56
2023-03-14T18:16:15.410Z,52.45
2023-03-14T18:18:47.058Z,52.66
2023-03-14T18:21:16.387Z,52.80
2023-03-14T18:23:43.072Z,52.69
2023-03-14T18:26:10.436Z,53.21
2023-03-14T18:28:37.044Z,53.07
2023-03-14T18:31:14.018Z,53.36
2023-03-14T18:33:45.442Z,52.99
2023-03-14T18:36:12.922Z,53.44
2023-03-14T18:38:43.709Z,53.42
2023-03-14T18:41:11.961Z,53.56
2023-03-14T18:43:38.741Z,53.03
2023-03-14T18:46:05.634Z,53.44
2023-03-14T18:48:32.852Z,53.43
2023-03-14T18:51:01.285Z,52.93
2023-03-14T18:53:32.232Z,53.30
2023-03-14T18:56:00.426Z,52.93
2023-03-14T18:58:29.801Z,53.09
2023-03-14T19:01:01.566Z,52.75
2023-03-14T19:03:29.822Z,52.69
2023-03-14T19:05:58.239Z,53.18
2023-03-14T19:08:26.165Z,53.15
2023-03-14T19:10:55.514Z,53.19
2023-03-14T19:13:23.360Z,53.09
2023-03-14T19:15:50.229Z,52.52
2023-03-14T19:18:17.138Z,52.82
2023-03-14T19:20:45.098Z,53.15
2023-03-14T19:23:14.709Z,52.67
2023-03-14T19:25:45.179Z,52.83
2023-03-14T19:28:11.851Z,52.88
2023-03-14T19:30:38.429Z,53.42
2023-03-14T19:33:05.081Z,52.93
2023-03-14T19:35:31.691Z,52.35
2023-03-14T19:37:58.360Z,52.59
2023-03-14T19:40:24.894Z,52.61
2023-03-14T19:42:51.467Z,52.26
2023-03-14T19:45:18.229Z,52.68
2023-03-14T19:47:44.859Z,52.53
2023-03-14T19:50:12.152Z,52.90
2023-03-14T19:52:43.831Z,52.66
2023-03-14T19:55:12.753Z,53.09
2023-03-14T19:57:40.020Z,52.71
2023-03-14T20:00:14.431Z,52.53
2023-03-14T20:02:41.820Z,52.08
2023-03-14T20:05:08.784Z,52.26
2023-03-14T20:07:35.374Z,52.34
2023-03-14T20:10:01.935Z,51.91
2023-03-14T20:12:31.530Z,51.86
2023-03-14T20:14:58.201Z,51.77
2023-03-14T20:17:24.785Z,51.72
2023-03-14T20:19:51.346Z,51.71
2023-03-14T20:22:17.992Z,51.58
2023-03-14T20:24:44.688Z,51.61
2023-03-14T20:27:11.311Z,51.23
2023-03-14T20:29:37.908Z,51.42
2023-03-14T20:32:06.668Z,51.82
2023-03-14T20:34:34.583Z,51.56
2023-03-14T20:37:03.758Z,51.68
2023-03-14T20:39:30.357Z,51.69
2023-03-14T20:41:56.876Z,51.73
2023-03-14T20:44:23.600Z,51.43
2023-03-14T20:46:50.160Z,51.48
2023-03-14T20:49:16.708Z,51.79
2023-03-14T20:51:43.305Z,51.49
2023-03-14T20:54:14.178Z,51.49
2023-03-14T20:56:40.913Z,51.87
2023-03-14T20:59:07.542Z,51.97
2023-03-14T21:04:18.788Z,52.11
2023-03-14T21:06:46.026Z,52.12
2023-03-14T21:09:12.753Z,51.74
2023-03-14T21:11:42.601Z,51.59
2023-03-14T21:14:09.164Z,51.57
2023-03-14T21:16:35.751Z,51.42
2023-03-14T21:19:02.336Z,51.83
2023-03-14T21:21:28.918Z,51.64
2023-03-14T21:23:55.469Z,52.19
2023-03-14T21:26:22.296Z,52.26
2023-03-14T21:28:49.341Z,52.03
2023-03-14T21:31:15.953Z,51.39
2023-03-14T21:33:42.490Z,51.64
2023-03-14T21:36:09.163Z,52.21
2023-03-14T21:38:35.836Z,51.94
2023-03-14T21:41:03.274Z,51.96
2023-03-14T21:43:29.936Z,52.00
2023-03-14T21:45:56.596Z,51.64
2023-03-14T21:48:23.182Z,51.37
2023-03-14T21:50:49.766Z,51.27
2023-03-14T21:53:16.597Z,51.48
2023-03-14T21:55:44.477Z,51.29
2023-03-14T21:58:14.329Z,51.49
2023-03-14T22:00:42.696Z,51.49
2023-03-14T22:03:13.309Z,51.25
2023-03-14T22:05:47.261Z,50.72
2023-03-14T22:08:15.542Z,50.89
2023-03-14T22:10:50.454Z,51.04
2023-03-14T22:13:18.604Z,51.09
2023-03-14T22:15:46.322Z,51.07
2023-03-14T22:18:13.993Z,50.91
2023-03-14T22:20:40.916Z,50.94
2023-03-14T22:23:07.773Z,51.09
2023-03-14T22:25:34.469Z,50.93
2023-03-14T22:28:01.150Z,51.14
2023-03-14T22:30:27.720Z,51.23
2023-03-14T22:32:55.240Z,51.19
2023-03-14T22:35:21.806Z,51.41
2023-03-14T22:37:48.365Z,51.32
2023-03-14T22:40:14.964Z,51.74
2023-03-14T22:42:41.554Z,51.07
2023-03-14T22:45:08.873Z,50.68
2023-03-14T22:47:35.789Z,50.45
2023-03-14T22:50:04.210Z,49.56
2023-03-14T22:52:32.168Z,49.00
2023-03-14T22:54:58.846Z,48.74
2023-03-14T22:57:25.511Z,48.98
2023-03-14T22:59:52.123Z,48.55
2023-03-14T23:02:18.752Z,48.49
2023-03-14T23:04:45.354Z,48.71
2023-03-14T23:07:12.049Z,48.56
2023-03-14T23:09:39.746Z,48.06
2023-03-14T23:12:06.505Z,48.19
2023-03-14T23:14:33.481Z,47.73
2023-03-14T23:17:00.093Z,47.79
2023-03-14T23:19:29.060Z,47.84
2023-03-14T23:21:55.932Z,47.89
2023-03-14T23:24:22.733Z,47.71
2023-03-14T23:26:49.317Z,47.81
2023-03-14T23:29:15.933Z,47.77
2023-03-14T23:31:42.726Z,47.74
2023-03-14T23:34:09.665Z,47.64
2023-03-14T23:36:39.451Z,47.58
2023-03-14T23:39:08.002Z,47.64
2023-03-14T23:41:35.279Z,47.51
2023-03-14T23:44:01.965Z,47.20
2023-03-14T23:46:29.429Z,47.25
2023-03-14T23:48:56.654Z,47.59
2023-03-14T23:51:24.029Z,47.44
2023-03-14T23:53:50.810Z,47.32
2023-03-14T23:56:18.300Z,47.48
2023-03-14T23:58:44.861Z,47.30
